RJSF/FKS METAR and TAF weather

Enter ICAO airport designator
Station Type Date Time Source
RJSF METAR 2020/11/27 03:00 UTC NOAA

RJSF 270300Z 03005KT 9999 FEW020 BKN030 08/03 Q1019


Station Type Date Time Source
RJSF Decoded METAR 2020/11/27 03:00 UTC NOAA

Fukushima Airport, Japan (RJSF) 37-14N 140-26E 375M
Nov 26, 2020 - 10:00 PM EST / 2020.11.27 0300 UTC
Wind: from the NNE (030 degrees) at 6 MPH (5 KT):0
Visibility: greater than 7 mile(s):0
Sky conditions: mostly cloudy
Temperature: 46 F (8 C)
Dew Point: 37 F (3 C)
Relative Humidity: 70%
Pressure (altimeter): 30.09 in. Hg (1019 hPa)
ob: RJSF 270300Z 03005KT 9999 FEW020 BKN030 08/03 Q1019
cycle: 3

Station Type Date Time Source
RJSF TAF 2020/11/26 18:28 UTC NOAA

TAF RJSF 261705Z 2618/2800 36010KT 9999 FEW020 BKN040
BECMG 2703/2705 14006KT
BECMG 2715/2718 02004KT
TEMPO 2715/2800 1500 -SHRA BR FEW001 BKN003 BKN005
BECMG 2721/2800 32012KT

Example: see airport list